Time;durP1;ratioP1;P1;durP2;ratioP2;P2;SDS_P1;SDS_P2;PMS_P1;PMS_P2;Temp;Humidity;BMP_temperature;BMP_pressure;BME280_temperature;BME280_humidity;BME280_pressure;Samples;Min_cycle;Max_cycle;Signal;HPM_P1;HPM_P2
2023/09/26 00:00:56;;;;;;;6.57;5.25;;;11.40;99.90;;;;;;5033485;28;20052;-55
2023/09/26 00:03:21;;;;;;;6.03;5.05;;;11.40;99.90;;;;;;5029362;28;20389;-55
2023/09/26 00:05:48;;;;;;;8.27;5.95;;;11.40;99.90;;;;;;5035319;28;20510;-55
2023/09/26 00:08:14;;;;;;;6.65;5.30;;;11.30;99.90;;;;;;5033152;28;20329;-54
2023/09/26 00:10:39;;;;;;;6.68;5.40;;;11.30;99.90;;;;;;5031939;28;20492;-55
2023/09/26 00:13:05;;;;;;;7.88;5.50;;;11.30;99.90;;;;;;5034417;28;20038;-57
2023/09/26 00:15:31;;;;;;;7.68;6.18;;;11.20;99.90;;;;;;5031158;28;20074;-52
2023/09/26 00:17:57;;;;;;;6.65;5.20;;;11.30;99.90;;;;;;5026816;28;20065;-54
2023/09/26 00:20:30;;;;;;;7.57;6.35;;;11.30;99.90;;;;;;5030571;28;20032;-54
2023/09/26 00:22:56;;;;;;;7.13;5.90;;;11.30;99.90;;;;;;5027044;28;20116;-55
2023/09/26 00:25:22;;;;;;;6.28;5.15;;;11.30;99.90;;;;;;5023555;28;20577;-53
2023/09/26 00:27:48;;;;;;;7.10;5.25;;;11.20;99.90;;;;;;5017398;28;20605;-58
2023/09/26 00:30:14;;;;;;;6.90;5.22;;;11.20;99.90;;;;;;5026255;28;20037;-58
2023/09/26 00:32:40;;;;;;;7.22;5.43;;;11.20;99.90;;;;;;5023667;28;20037;-55
2023/09/26 00:35:11;;;;;;;6.70;5.68;;;11.20;99.90;;;;;;5027731;28;20041;-56
2023/09/26 00:37:41;;;;;;;8.32;7.03;;;11.20;99.90;;;;;;5027366;28;20431;-53
2023/09/26 00:40:10;;;;;;;6.53;5.78;;;11.20;99.90;;;;;;5028875;28;20029;-53
2023/09/26 00:42:35;;;;;;;8.70;6.82;;;11.20;99.90;;;;;;5025376;28;20016;-55
2023/09/26 00:45:02;;;;;;;10.38;6.03;;;11.20;99.90;;;;;;5026917;28;20021;-52
2023/09/26 00:47:27;;;;;;;7.63;6.63;;;11.20;99.90;;;;;;5016539;28;20087;-55
2023/09/26 00:49:53;;;;;;;9.75;6.30;;;11.20;99.90;;;;;;5024120;28;20029;-55
2023/09/26 00:52:18;;;;;;;8.32;6.53;;;11.20;99.90;;;;;;5025871;28;20032;-56
2023/09/26 00:54:44;;;;;;;8.18;6.50;;;11.10;99.90;;;;;;5025834;28;20041;-56
2023/09/26 00:57:10;;;;;;;7.53;6.72;;;11.10;99.90;;;;;;5025226;28;20049;-54
2023/09/26 00:59:39;;;;;;;7.05;6.32;;;11.10;99.90;;;;;;5030466;28;20033;-54
2023/09/26 01:02:05;;;;;;;10.18;7.45;;;11.10;99.90;;;;;;5021502;28;20052;-56
2023/09/26 01:04:31;;;;;;;7.60;6.57;;;11.10;99.90;;;;;;5027163;28;20404;-52
2023/09/26 01:06:57;;;;;;;8.43;7.13;;;11.10;99.90;;;;;;5023589;28;20029;-56
2023/09/26 01:09:23;;;;;;;8.10;6.35;;;11.10;99.90;;;;;;5023222;28;20112;-53
2023/09/26 01:11:48;;;;;;;9.07;6.13;;;11.10;99.90;;;;;;5026741;28;20048;-54
2023/09/26 01:14:14;;;;;;;9.77;7.50;;;11.00;99.90;;;;;;5026673;28;20253;-53
2023/09/26 01:16:39;;;;;;;7.93;6.78;;;11.10;99.90;;;;;;5023382;28;20025;-56
2023/09/26 01:19:05;;;;;;;9.18;7.03;;;11.10;99.90;;;;;;5027145;28;20396;-55
2023/09/26 01:21:32;;;;;;;9.60;7.72;;;11.10;99.90;;;;;;5022999;28;20041;-54
2023/09/26 01:23:57;;;;;;;9.00;7.28;;;11.10;99.90;;;;;;5027246;28;20040;-55
2023/09/26 01:26:24;;;;;;;8.70;6.22;;;11.10;99.90;;;;;;5025044;28;20037;-55
2023/09/26 01:28:49;;;;;;;9.90;7.80;;;11.10;99.90;;;;;;5035754;28;20068;-56
2023/09/26 01:31:15;;;;;;;9.88;7.53;;;11.10;99.90;;;;;;5019810;28;20314;-53
2023/09/26 01:33:41;;;;;;;10.15;7.00;;;11.10;99.90;;;;;;5027590;28;20076;-55
2023/09/26 01:36:06;;;;;;;8.82;6.65;;;11.10;99.90;;;;;;5028111;28;20103;-53
2023/09/26 01:38:32;;;;;;;7.65;6.75;;;11.10;99.90;;;;;;5026478;28;20105;-52
2023/09/26 01:40:58;;;;;;;9.63;7.32;;;11.10;99.90;;;;;;5028207;28;20029;-56
2023/09/26 01:43:24;;;;;;;11.93;6.45;;;11.10;99.90;;;;;;5026691;28;20057;-55
2023/09/26 01:45:51;;;;;;;9.40;6.75;;;11.10;99.90;;;;;;5025972;28;20029;-55
2023/09/26 01:48:16;;;;;;;9.50;6.53;;;11.10;99.90;;;;;;5024911;28;20489;-59
2023/09/26 01:50:42;;;;;;;8.55;7.47;;;11.10;99.90;;;;;;5027019;28;20032;-59
2023/09/26 01:53:09;;;;;;;8.02;6.63;;;11.10;99.90;;;;;;5033877;28;20031;-60
2023/09/26 01:55:38;;;;;;;8.93;7.40;;;11.10;99.90;;;;;;5032619;28;20025;-60
2023/09/26 01:58:03;;;;;;;10.77;8.73;;;11.10;99.90;;;;;;5035706;28;20072;-60
2023/09/26 02:00:29;;;;;;;9.60;7.97;;;11.20;99.90;;;;;;5031434;28;20113;-60
2023/09/26 02:02:55;;;;;;;10.90;8.50;;;11.20;99.90;;;;;;5016106;28;20033;-59
2023/09/26 02:05:21;;;;;;;10.23;7.88;;;11.20;99.90;;;;;;5012430;28;20439;-60
2023/09/26 02:07:47;;;;;;;9.98;7.95;;;11.20;99.90;;;;;;5027065;28;20053;-57
2023/09/26 02:10:14;;;;;;;9.82;6.85;;;11.20;99.90;;;;;;5029957;28;20029;-59
2023/09/26 02:12:48;;;;;;;10.80;7.22;;;11.20;99.90;;;;;;5026774;28;20028;-60
2023/09/26 02:15:14;;;;;;;10.32;8.23;;;11.20;99.90;;;;;;5021629;28;20031;-59
2023/09/26 02:17:41;;;;;;;9.57;7.28;;;11.20;99.90;;;;;;5027448;28;20036;-60
2023/09/26 02:20:12;;;;;;;9.20;6.35;;;11.20;99.90;;;;;;5026633;28;20033;-60
2023/09/26 02:22:42;;;;;;;8.43;7.50;;;11.20;99.90;;;;;;5024166;28;20095;-59
2023/09/26 02:25:10;;;;;;;9.95;7.55;;;11.20;99.90;;;;;;5027735;28;20115;-59
2023/09/26 02:27:36;;;;;;;11.63;9.23;;;11.20;99.90;;;;;;5027429;28;20025;-59
2023/09/26 02:30:04;;;;;;;13.27;9.52;;;11.20;99.90;;;;;;5025085;28;20035;-59
2023/09/26 02:32:31;;;;;;;14.18;9.43;;;11.20;99.90;;;;;;5025814;28;20152;-59
2023/09/26 02:34:56;;;;;;;13.70;9.70;;;11.20;99.90;;;;;;5027578;28;20511;-60
2023/09/26 02:37:22;;;;;;;10.85;8.60;;;11.30;99.90;;;;;;5023421;28;20086;-59
2023/09/26 02:39:47;;;;;;;10.38;8.20;;;11.20;99.90;;;;;;5029007;28;20061;-59
2023/09/26 02:42:13;;;;;;;14.15;9.45;;;11.20;99.90;;;;;;5026476;28;20032;-60
2023/09/26 02:44:39;;;;;;;9.07;6.93;;;11.20;99.90;;;;;;5026442;28;20196;-59
2023/09/26 02:47:05;;;;;;;7.32;5.65;;;11.20;99.90;;;;;;5022677;28;20030;-60
2023/09/26 02:52:52;;;;;;;8.80;6.95;;;11.00;99.90;;;;;;5024024;28;20117;-59
2023/09/26 02:55:20;;;;;;;9.50;7.30;;;11.00;99.90;;;;;;5030964;28;20108;-60
2023/09/26 02:57:45;;;;;;;8.88;7.53;;;11.00;99.90;;;;;;5032247;28;20517;-55
2023/09/26 03:00:16;;;;;;;7.65;6.68;;;11.00;99.90;;;;;;5033237;28;20737;-55
2023/09/26 03:02:42;;;;;;;10.27;7.13;;;10.90;99.90;;;;;;5034672;28;20061;-54
2023/09/26 03:05:12;;;;;;;10.13;7.07;;;10.90;99.90;;;;;;5034092;28;20029;-56
2023/09/26 03:07:39;;;;;;;11.57;8.45;;;10.80;99.90;;;;;;5030069;28;20033;-55
2023/09/26 03:10:05;;;;;;;13.75;10.50;;;10.80;99.90;;;;;;5033977;28;20033;-55
2023/09/26 03:12:31;;;;;;;12.40;9.45;;;10.80;99.90;;;;;;5023226;28;20088;-53
2023/09/26 03:14:56;;;;;;;13.52;9.23;;;10.80;99.90;;;;;;5030664;28;20033;-57
2023/09/26 03:17:22;;;;;;;9.65;7.88;;;10.80;99.90;;;;;;5034169;28;20032;-56
2023/09/26 03:19:47;;;;;;;11.20;9.13;;;10.70;99.90;;;;;;5034203;28;20094;-57
2023/09/26 03:22:13;;;;;;;12.57;9.38;;;10.70;99.90;;;;;;5030839;28;20028;-56
2023/09/26 03:24:39;;;;;;;17.77;11.10;;;10.70;99.90;;;;;;5021179;28;20025;-57
2023/09/26 03:27:04;;;;;;;12.55;9.65;;;10.70;99.90;;;;;;5031595;28;20061;-55
2023/09/26 03:29:30;;;;;;;12.25;10.13;;;10.70;99.90;;;;;;5035606;28;20100;-57
2023/09/26 03:31:55;;;;;;;16.88;10.15;;;10.70;99.90;;;;;;5038451;28;20021;-55
2023/09/26 03:34:20;;;;;;;14.15;11.20;;;10.60;99.90;;;;;;5026502;28;20455;-56
2023/09/26 03:36:46;;;;;;;14.38;11.45;;;10.60;99.90;;;;;;5027921;28;20604;-57
2023/09/26 03:39:11;;;;;;;12.85;10.50;;;10.60;99.90;;;;;;5031779;28;20014;-55
2023/09/26 03:41:37;;;;;;;13.85;10.57;;;10.60;99.90;;;;;;5037317;28;20068;-56
2023/09/26 03:44:03;;;;;;;14.75;11.18;;;10.60;99.90;;;;;;5036460;28;20037;-56
2023/09/26 03:46:28;;;;;;;11.63;8.98;;;10.60;99.90;;;;;;5036626;28;20036;-57
2023/09/26 03:48:54;;;;;;;12.05;9.43;;;10.50;99.90;;;;;;5028275;28;20116;-55
2023/09/26 03:51:19;;;;;;;15.95;11.45;;;10.50;99.90;;;;;;5036589;28;20091;-56
2023/09/26 03:53:47;;;;;;;13.70;10.15;;;10.40;99.90;;;;;;5031618;28;20544;-55
2023/09/26 03:56:12;;;;;;;11.68;9.77;;;10.40;99.90;;;;;;5038070;28;20041;-56
2023/09/26 03:58:38;;;;;;;11.20;9.20;;;10.40;99.90;;;;;;5039705;28;20072;-55
2023/09/26 04:01:11;;;;;;;12.05;9.15;;;10.40;99.90;;;;;;5034118;28;20021;-53
2023/09/26 04:03:38;;;;;;;11.38;8.80;;;10.30;99.90;;;;;;5028624;28;20048;-55
2023/09/26 04:06:04;;;;;;;9.73;8.65;;;10.30;99.90;;;;;;5037900;28;20028;-54
2023/09/26 04:08:29;;;;;;;11.70;9.80;;;10.30;99.90;;;;;;5033514;28;20035;-55
2023/09/26 04:10:55;;;;;;;13.45;10.45;;;10.20;99.90;;;;;;5036453;28;20048;-57
2023/09/26 04:13:20;;;;;;;11.80;8.63;;;10.20;99.90;;;;;;5035685;28;20056;-56
2023/09/26 04:15:46;;;;;;;11.75;9.35;;;10.20;99.90;;;;;;5033801;28;20558;-56
2023/09/26 04:18:11;;;;;;;14.18;10.55;;;10.10;99.90;;;;;;5033716;28;20037;-52
2023/09/26 04:20:37;;;;;;;15.15;9.93;;;10.10;99.90;;;;;;5031459;28;20024;-57
2023/09/26 04:23:03;;;;;;;18.67;12.02;;;10.10;99.90;;;;;;5030365;28;20143;-57
2023/09/26 04:25:34;;;;;;;12.38;9.32;;;10.10;99.90;;;;;;5028730;28;20621;-55
2023/09/26 04:28:00;;;;;;;12.93;10.02;;;10.00;99.90;;;;;;5026587;28;20049;-55
2023/09/26 04:30:25;;;;;;;14.07;10.25;;;10.00;99.90;;;;;;5035024;28;20101;-53
2023/09/26 04:32:51;;;;;;;15.05;10.75;;;10.00;99.90;;;;;;5034835;28;20119;-55
2023/09/26 04:35:16;;;;;;;14.38;11.18;;;10.00;99.90;;;;;;5027659;28;20112;-56
2023/09/26 04:37:42;;;;;;;15.63;10.98;;;10.00;99.90;;;;;;5027561;28;20127;-55
2023/09/26 04:40:11;;;;;;;15.95;10.90;;;10.00;99.90;;;;;;5029132;28;20022;-53
2023/09/26 04:42:45;;;;;;;14.93;11.18;;;10.00;99.90;;;;;;5028637;28;20027;-58
2023/09/26 04:45:11;;;;;;;15.95;11.15;;;9.90;99.90;;;;;;5027493;28;20018;-58
2023/09/26 04:47:36;;;;;;;12.63;9.98;;;9.90;99.90;;;;;;5025748;28;20086;-55
2023/09/26 04:50:03;;;;;;;13.77;10.68;;;9.90;99.90;;;;;;5029934;28;20029;-56
2023/09/26 04:52:29;;;;;;;16.98;12.20;;;9.90;99.90;;;;;;5029920;28;20025;-57
2023/09/26 04:54:55;;;;;;;19.48;11.90;;;9.90;99.90;;;;;;5025846;28;20473;-58
2023/09/26 04:57:20;;;;;;;15.57;11.30;;;9.90;99.90;;;;;;5031125;28;20036;-57
2023/09/26 04:59:46;;;;;;;20.60;13.05;;;9.90;99.90;;;;;;5026226;28;20103;-55
2023/09/26 05:02:11;;;;;;;20.42;14.13;;;9.90;99.90;;;;;;5021019;28;20025;-57
2023/09/26 05:04:37;;;;;;;18.15;12.90;;;10.00;99.90;;;;;;5027572;28;20040;-57
2023/09/26 05:07:02;;;;;;;34.35;11.48;;;9.90;99.90;;;;;;5025085;28;20037;-57
2023/09/26 05:09:28;;;;;;;17.67;12.43;;;10.00;99.90;;;;;;5024978;28;20024;-57
2023/09/26 05:11:53;;;;;;;13.88;10.90;;;10.00;99.90;;;;;;5010613;28;20041;-55
2023/09/26 05:14:19;;;;;;;15.07;11.48;;;10.00;99.90;;;;;;5021345;28;20033;-57
2023/09/26 05:16:44;;;;;;;17.63;10.77;;;10.00;99.90;;;;;;5023355;28;20036;-55
2023/09/26 05:19:10;;;;;;;18.50;12.57;;;10.10;99.90;;;;;;5026563;28;20036;-56
2023/09/26 05:21:35;;;;;;;20.95;12.95;;;10.10;99.90;;;;;;5023488;28;20027;-56
2023/09/26 05:24:01;;;;;;;14.18;10.40;;;10.10;99.90;;;;;;5026636;28;20382;-56
2023/09/26 05:26:26;;;;;;;17.08;12.52;;;10.10;99.90;;;;;;5027389;28;20045;-56
2023/09/26 05:28:52;;;;;;;19.48;14.13;;;10.10;99.90;;;;;;5028935;28;20080;-56
2023/09/26 05:31:18;;;;;;;20.50;12.85;;;10.10;99.90;;;;;;5024826;28;20447;-57
2023/09/26 05:33:44;;;;;;;24.20;14.98;;;10.20;99.90;;;;;;5027578;28;20104;-57
2023/09/26 05:36:09;;;;;;;16.85;11.75;;;10.30;99.90;;;;;;5020482;28;20432;-54
2023/09/26 05:38:35;;;;;;;17.02;12.77;;;10.30;99.90;;;;;;5026178;28;20033;-57
2023/09/26 05:41:00;;;;;;;18.58;13.32;;;10.30;99.90;;;;;;5035055;28;20446;-53
2023/09/26 05:43:27;;;;;;;15.55;11.95;;;10.30;99.90;;;;;;5028528;28;20059;-53
2023/09/26 05:45:52;;;;;;;17.27;12.02;;;10.40;99.90;;;;;;5035112;28;20033;-53
2023/09/26 05:48:21;;;;;;;17.05;12.98;;;10.50;99.90;;;;;;5030719;28;20148;-54
2023/09/26 05:50:46;;;;;;;15.55;11.13;;;10.60;99.90;;;;;;5027482;28;20469;-55
2023/09/26 05:53:12;;;;;;;17.98;13.05;;;10.60;99.90;;;;;;5025895;28;20034;-56
2023/09/26 05:55:38;;;;;;;16.55;11.70;;;10.70;99.90;;;;;;5022977;28;20532;-55
2023/09/26 05:58:03;;;;;;;12.35;10.20;;;10.70;99.90;;;;;;5025168;28;20482;-55
2023/09/26 06:00:29;;;;;;;14.43;10.30;;;10.80;99.90;;;;;;5026839;28;20037;-50
2023/09/26 06:02:54;;;;;;;16.55;12.00;;;11.00;99.90;;;;;;5025322;28;20632;-54
2023/09/26 06:05:20;;;;;;;14.40;11.40;;;11.00;99.90;;;;;;5025475;28;20040;-56
2023/09/26 06:07:45;;;;;;;14.35;10.07;;;11.10;99.90;;;;;;5028347;28;20122;-52
2023/09/26 06:10:11;;;;;;;13.45;10.80;;;11.30;99.90;;;;;;5029424;28;20036;-53
2023/09/26 06:12:40;;;;;;;12.10;10.70;;;11.40;99.90;;;;;;5024755;28;20029;-56
2023/09/26 06:15:06;;;;;;;19.92;13.77;;;11.50;99.90;;;;;;5027369;28;20488;-55
2023/09/26 06:17:32;;;;;;;16.25;11.60;;;11.70;99.90;;;;;;5023115;28;20028;-56
2023/09/26 06:19:58;;;;;;;13.48;10.43;;;11.80;99.90;;;;;;5030910;28;20041;-55
2023/09/26 06:22:23;;;;;;;12.65;10.48;;;12.00;99.90;;;;;;5024384;28;20156;-55
2023/09/26 06:24:49;;;;;;;27.73;14.70;;;12.10;99.90;;;;;;5025712;28;20033;-53
2023/09/26 06:27:14;;;;;;;32.97;16.48;;;12.40;99.90;;;;;;5028486;28;20524;-54
2023/09/26 06:29:40;;;;;;;59.65;20.83;;;12.50;99.90;;;;;;5025806;28;20036;-56
2023/09/26 06:32:06;;;;;;;44.80;17.13;;;12.70;99.90;;;;;;5023219;28;20013;-56
2023/09/26 06:34:32;;;;;;;46.75;19.17;;;12.90;99.90;;;;;;5031545;28;20028;-55
2023/09/26 06:36:57;;;;;;;29.45;17.50;;;12.90;99.90;;;;;;5032164;28;20808;-57
2023/09/26 06:39:23;;;;;;;36.42;18.80;;;13.00;99.90;;;;;;5030243;28;20056;-56
2023/09/26 06:41:50;;;;;;;36.83;15.32;;;13.20;99.90;;;;;;5031064;28;20535;-56
2023/09/26 06:44:15;;;;;;;46.38;16.00;;;13.30;99.90;;;;;;5022668;28;20021;-54
2023/09/26 06:46:41;;;;;;;23.52;13.02;;;13.40;99.90;;;;;;5025904;28;20036;-56
2023/09/26 06:49:07;;;;;;;43.22;17.77;;;13.50;99.90;;;;;;5019187;28;20439;-56
2023/09/26 06:51:33;;;;;;;31.25;14.73;;;13.60;99.90;;;;;;5024303;28;20026;-57
2023/09/26 06:53:59;;;;;;;32.28;16.75;;;13.70;99.90;;;;;;5026185;28;20718;-57
2023/09/26 06:56:25;;;;;;;33.00;17.08;;;13.70;99.90;;;;;;5022825;28;20056;-57
2023/09/26 06:58:50;;;;;;;31.52;15.07;;;13.80;99.90;;;;;;5027389;28;20033;-57
2023/09/26 07:01:18;;;;;;;21.77;14.52;;;13.90;99.90;;;;;;5027000;28;20721;-58
2023/09/26 07:03:44;;;;;;;27.60;12.75;;;14.10;99.90;;;;;;5026185;28;20029;-57
2023/09/26 07:06:11;;;;;;;18.98;13.77;;;14.30;99.90;;;;;;5023858;28;20108;-57
2023/09/26 07:08:43;;;;;;;21.83;12.57;;;14.50;99.90;;;;;;5024338;28;20095;-56
2023/09/26 07:11:09;;;;;;;17.67;12.82;;;14.70;99.90;;;;;;5026461;28;20519;-58
2023/09/26 07:13:35;;;;;;;22.33;12.60;;;14.90;99.90;;;;;;5023234;28;20055;-58
2023/09/26 07:16:05;;;;;;;13.77;11.10;;;15.10;99.90;;;;;;5020995;28;20036;-58
2023/09/26 07:18:32;;;;;;;14.02;10.00;;;15.20;99.90;;;;;;5028546;28;20556;-57
2023/09/26 07:21:04;;;;;;;13.73;10.75;;;15.50;99.90;;;;;;5019589;28;20033;-57
2023/09/26 07:23:32;;;;;;;19.85;12.30;;;15.60;99.90;;;;;;5016077;28;20060;-57
2023/09/26 07:26:08;;;;;;;17.38;11.85;;;15.60;99.90;;;;;;5031396;28;20056;-57
2023/09/26 07:28:35;;;;;;;18.67;13.52;;;15.70;99.90;;;;;;5022860;28;20108;-57
2023/09/26 07:31:00;;;;;;;14.77;10.43;;;15.70;99.90;;;;;;5023848;28;20029;-57
2023/09/26 07:33:28;;;;;;;13.48;9.85;;;15.80;99.90;;;;;;5031061;28;20032;-57
2023/09/26 07:35:54;;;;;;;14.15;10.80;;;16.20;99.90;;;;;;5025895;28;20672;-57
2023/09/26 07:38:19;;;;;;;16.35;12.65;;;16.40;99.90;;;;;;5027792;28;20044;-58
2023/09/26 07:40:45;;;;;;;13.18;10.32;;;16.40;99.90;;;;;;5023846;28;20040;-58
2023/09/26 07:43:10;;;;;;;13.85;11.48;;;16.60;99.90;;;;;;5032158;28;20051;-58
2023/09/26 07:45:39;;;;;;;12.05;9.77;;;16.60;99.90;;;;;;5026170;28;20029;-58
2023/09/26 07:48:05;;;;;;;11.05;9.02;;;16.70;99.90;;;;;;5023643;28;20524;-65
2023/09/26 07:50:31;;;;;;;8.25;7.20;;;17.10;99.90;;;;;;5027228;28;20060;-68
2023/09/26 07:52:56;;;;;;;12.98;10.35;;;17.60;99.90;;;;;;5025259;28;20067;-59
2023/09/26 07:55:22;;;;;;;11.55;9.68;;;17.80;99.90;;;;;;5031807;28;20682;-58
2023/09/26 07:57:48;;;;;;;8.82;7.70;;;17.80;99.90;;;;;;5021846;28;20030;-62
2023/09/26 08:00:14;;;;;;;14.65;9.52;;;18.20;99.90;;;;;;5025686;28;20029;-61
2023/09/26 08:02:40;;;;;;;9.88;7.82;;;18.70;99.90;;;;;;5027586;28;20031;-62
2023/09/26 08:05:06;;;;;;;12.20;8.00;;;19.30;99.90;;;;;;5026458;28;20029;-62
2023/09/26 08:07:32;;;;;;;7.93;6.88;;;19.70;99.90;;;;;;5024405;28;20025;-62
2023/09/26 08:10:00;;;;;;;11.07;8.95;;;19.80;99.90;;;;;;5022445;28;20034;-62
2023/09/26 08:12:27;;;;;;;12.25;10.82;;;19.90;99.60;;;;;;5025644;28;20021;-63
2023/09/26 08:14:56;;;;;;;11.32;10.10;;;19.80;99.90;;;;;;5025677;28;20147;-61
2023/09/26 08:17:22;;;;;;;23.80;17.70;;;19.50;99.90;;;;;;5029247;28;20032;-61
2023/09/26 08:19:48;;;;;;;23.75;17.05;;;19.40;99.00;;;;;;5025197;28;20021;-62
2023/09/26 08:22:13;;;;;;;25.40;19.55;;;18.80;99.90;;;;;;5030911;28;20025;-62
2023/09/26 08:24:39;;;;;;;25.17;19.98;;;18.60;98.70;;;;;;5027739;28;20025;-61
2023/09/26 08:27:05;;;;;;;26.60;20.75;;;18.50;99.90;;;;;;5026204;28;20501;-61
2023/09/26 08:29:31;;;;;;;22.25;17.88;;;18.30;99.90;;;;;;5029655;28;20031;-61
2023/09/26 08:31:57;;;;;;;24.33;17.33;;;18.20;99.90;;;;;;5030471;28;20025;-61
2023/09/26 08:34:23;;;;;;;18.08;13.95;;;18.40;99.90;;;;;;5029082;28;20543;-60
2023/09/26 08:36:49;;;;;;;23.50;17.52;;;18.60;99.90;;;;;;5034067;28;20026;-62
2023/09/26 08:39:14;;;;;;;26.02;19.05;;;18.80;99.90;;;;;;5028097;28;20040;-61
2023/09/26 08:41:43;;;;;;;19.15;14.88;;;18.60;99.90;;;;;;5025687;28;20040;-61
2023/09/26 08:44:13;;;;;;;27.67;21.30;;;18.70;99.90;;;;;;5029645;28;20029;-61
2023/09/26 08:46:40;;;;;;;26.08;20.30;;;18.60;99.90;;;;;;5031179;28;20021;-61
2023/09/26 08:49:06;;;;;;;22.15;17.65;;;18.80;99.90;;;;;;5021323;28;20057;-62
2023/09/26 08:51:33;;;;;;;17.77;15.45;;;19.00;99.90;;;;;;5033168;28;20021;-61
2023/09/26 08:54:01;;;;;;;19.35;16.63;;;19.30;99.90;;;;;;5028811;28;20032;-60
2023/09/26 08:56:27;;;;;;;16.42;13.15;;;19.70;99.90;;;;;;5024354;28;20080;-61
2023/09/26 08:58:55;;;;;;;18.65;16.05;;;20.10;99.90;;;;;;5034220;28;20404;-62
2023/09/26 09:01:21;;;;;;;14.25;12.00;;;20.40;99.90;;;;;;5032493;28;20472;-61
2023/09/26 09:03:47;;;;;;;17.73;12.60;;;20.80;99.90;;;;;;5024848;28;20017;-61
2023/09/26 09:06:13;;;;;;;11.77;9.70;;;21.10;98.00;;;;;;5028705;28;20365;-62
2023/09/26 09:08:39;;;;;;;16.13;12.85;;;21.30;99.00;;;;;;5027409;28;20468;-62
2023/09/26 09:11:04;;;;;;;14.38;11.88;;;21.60;97.40;;;;;;5025232;28;20033;-61
2023/09/26 09:13:34;;;;;;;12.02;9.65;;;21.80;95.50;;;;;;5025904;28;20033;-61
2023/09/26 09:16:08;;;;;;;17.80;14.68;;;21.70;93.90;;;;;;5025290;28;20037;-61
2023/09/26 09:18:34;;;;;;;16.20;14.10;;;21.80;93.10;;;;;;5007237;28;20033;-61
2023/09/26 09:21:00;;;;;;;14.38;11.85;;;21.90;88.20;;;;;;5028631;28;20504;-62
2023/09/26 09:23:25;;;;;;;17.65;14.38;;;21.90;90.10;;;;;;5029085;28;20029;-60
2023/09/26 09:25:51;;;;;;;16.02;14.30;;;21.90;91.80;;;;;;5015874;28;20053;-61
2023/09/26 09:28:20;;;;;;;14.23;11.77;;;21.70;90.40;;;;;;5028865;28;20021;-61
2023/09/26 09:30:53;;;;;;;14.40;10.70;;;21.70;92.30;;;;;;5023837;28;20100;-62
2023/09/26 09:33:19;;;;;;;16.13;11.77;;;21.90;92.00;;;;;;5022047;28;20648;-61
2023/09/26 09:35:45;;;;;;;11.95;9.82;;;22.20;92.00;;;;;;5025202;28;20431;-61
2023/09/26 09:38:12;;;;;;;14.02;11.68;;;22.30;90.60;;;;;;5027936;28;20062;-61
2023/09/26 09:40:38;;;;;;;16.70;12.55;;;22.30;90.50;;;;;;5024514;28;20025;-61
2023/09/26 09:43:04;;;;;;;13.45;11.82;;;22.50;89.30;;;;;;5027851;28;20455;-60
2023/09/26 09:45:33;;;;;;;14.25;11.43;;;22.30;84.90;;;;;;5029532;28;20029;-61
2023/09/26 09:48:02;;;;;;;14.30;12.02;;;22.40;89.80;;;;;;5020571;28;20026;-61
2023/09/26 09:50:30;;;;;;;14.15;12.45;;;22.30;87.70;;;;;;5008356;28;20025;-61
2023/09/26 09:53:00;;;;;;;12.13;10.18;;;22.40;88.10;;;;;;5024711;28;20945;-58
2023/09/26 09:55:32;;;;;;;10.00;8.45;;;22.40;87.50;;;;;;5022811;28;20042;-58
2023/09/26 09:58:02;;;;;;;10.48;9.30;;;22.50;87.60;;;;;;5026301;28;20036;-58
2023/09/26 10:00:28;;;;;;;10.93;8.63;;;22.70;86.30;;;;;;5023466;28;20052;-57
2023/09/26 10:03:00;;;;;;;9.60;8.38;;;22.80;85.40;;;;;;5027211;28;20044;-58
2023/09/26 10:05:28;;;;;;;14.65;10.02;;;23.00;82.60;;;;;;5029876;28;20060;-57
2023/09/26 10:07:54;;;;;;;9.98;8.70;;;23.00;83.00;;;;;;5024334;28;20592;-58
2023/09/26 10:10:21;;;;;;;8.95;7.10;;;23.00;81.20;;;;;;5027441;28;20033;-58
2023/09/26 10:12:47;;;;;;;7.65;6.55;;;23.00;81.20;;;;;;5024714;28;20032;-58
2023/09/26 10:15:13;;;;;;;10.85;8.40;;;23.00;81.00;;;;;;5025491;28;20018;-58
2023/09/26 10:17:45;;;;;;;11.23;9.30;;;22.80;80.00;;;;;;5027043;28;20108;-58
2023/09/26 10:20:12;;;;;;;10.45;7.40;;;22.50;79.40;;;;;;5027635;28;20726;-58
2023/09/26 10:22:41;;;;;;;10.38;8.73;;;22.20;79.40;;;;;;5032037;28;20568;-58
2023/09/26 10:25:08;;;;;;;9.68;7.75;;;22.10;79.60;;;;;;5023673;28;20717;-58
2023/09/26 10:27:34;;;;;;;10.50;8.60;;;22.10;79.30;;;;;;5026782;28;20032;-58
2023/09/26 10:30:03;;;;;;;10.15;8.15;;;22.00;79.20;;;;;;5025404;28;20029;-58
2023/09/26 10:32:33;;;;;;;11.70;9.10;;;22.10;79.60;;;;;;5023856;28;20032;-58
2023/09/26 10:35:01;;;;;;;12.00;8.52;;;22.00;79.80;;;;;;5026620;28;20112;-58
2023/09/26 10:37:27;;;;;;;8.13;7.28;;;21.90;79.20;;;;;;5024422;28;20084;-58
2023/09/26 10:39:53;;;;;;;12.02;7.97;;;21.90;79.60;;;;;;5025975;28;20029;-58
2023/09/26 10:42:22;;;;;;;7.13;6.43;;;21.90;79.00;;;;;;5025926;28;20018;-58
2023/09/26 10:44:51;;;;;;;13.48;9.50;;;22.00;79.00;;;;;;5026081;28;20035;-58
2023/09/26 10:47:23;;;;;;;12.10;9.63;;;21.90;80.50;;;;;;5023780;28;20028;-57
2023/09/26 10:49:49;;;;;;;9.70;7.93;;;21.60;83.30;;;;;;5019829;28;20030;-58
2023/09/26 10:52:15;;;;;;;10.25;7.95;;;21.70;82.60;;;;;;5032029;28;20580;-58
2023/09/26 10:54:42;;;;;;;15.93;9.82;;;21.70;83.10;;;;;;5023966;28;20484;-58
2023/09/26 10:57:08;;;;;;;9.65;8.65;;;21.80;82.90;;;;;;5022729;28;20029;-59
2023/09/26 10:59:34;;;;;;;11.40;8.35;;;21.70;83.30;;;;;;5026484;28;20032;-58
2023/09/26 11:02:03;;;;;;;10.50;7.63;;;21.70;83.10;;;;;;5031255;28;20078;-58
2023/09/26 11:04:31;;;;;;;7.03;6.32;;;21.70;83.40;;;;;;5024017;28;20112;-58
2023/09/26 11:06:58;;;;;;;11.57;7.22;;;21.70;81.80;;;;;;5022268;28;20603;-58
2023/09/26 11:09:24;;;;;;;8.88;6.95;;;21.80;82.20;;;;;;5025248;28;20026;-57
2023/09/26 11:11:50;;;;;;;10.63;8.30;;;21.90;82.70;;;;;;5028169;28;20025;-61
2023/09/26 11:14:17;;;;;;;8.55;7.13;;;21.60;83.20;;;;;;5023083;28;20020;-61
2023/09/26 11:16:43;;;;;;;10.93;7.45;;;21.50;84.20;;;;;;5023393;28;20062;-60
2023/09/26 11:19:11;;;;;;;13.50;7.45;;;21.60;84.80;;;;;;5025281;28;20109;-61
2023/09/26 11:21:37;;;;;;;8.77;7.13;;;21.70;83.30;;;;;;5023289;28;20521;-61
2023/09/26 11:24:27;;;;;;;8.50;6.90;;;21.80;82.60;;;;;;5025957;28;20079;-60
2023/09/26 11:26:57;;;;;;;7.78;6.10;;;21.80;83.30;;;;;;5022840;28;20041;-60
2023/09/26 11:29:23;;;;;;;10.13;7.22;;;21.70;82.90;;;;;;5022120;28;20021;-60
2023/09/26 11:31:51;;;;;;;8.02;7.22;;;21.80;83.50;;;;;;5027765;28;20045;-60
2023/09/26 11:34:17;;;;;;;7.65;6.72;;;21.80;84.80;;;;;;5023507;28;20104;-61
2023/09/26 11:36:43;;;;;;;8.95;7.72;;;21.80;83.60;;;;;;5024834;28;20635;-61
2023/09/26 11:39:14;;;;;;;7.50;6.60;;;21.90;83.50;;;;;;5019166;28;20507;-61
2023/09/26 11:41:39;;;;;;;9.23;6.00;;;21.90;83.00;;;;;;5026281;28;20477;-61
2023/09/26 11:44:10;;;;;;;7.57;5.95;;;22.00;83.20;;;;;;5027461;28;20037;-60
2023/09/26 11:46:44;;;;;;;9.20;6.70;;;22.10;82.50;;;;;;5024069;28;20504;-56
2023/09/26 11:49:12;;;;;;;9.38;7.40;;;22.20;83.00;;;;;;5026715;28;20043;-56
2023/09/26 11:51:38;;;;;;;8.93;6.45;;;22.20;83.70;;;;;;5028175;28;20056;-55
2023/09/26 11:54:05;;;;;;;7.22;6.38;;;22.10;83.20;;;;;;5028444;28;20033;-57
2023/09/26 11:56:31;;;;;;;13.45;7.20;;;22.10;84.10;;;;;;5027265;28;20018;-57
2023/09/26 11:58:56;;;;;;;7.03;6.18;;;22.10;84.10;;;;;;5022166;28;20176;-55
2023/09/26 12:01:22;;;;;;;9.77;6.72;;;22.20;84.90;;;;;;5023392;28;20060;-59
2023/09/26 12:03:47;;;;;;;9.15;6.50;;;22.20;83.40;;;;;;5011987;28;20465;-57
2023/09/26 12:06:12;;;;;;;10.95;7.68;;;22.10;84.20;;;;;;5027657;28;20090;-58
2023/09/26 12:08:38;;;;;;;10.57;7.25;;;22.20;84.10;;;;;;5027458;28;20130;-57
2023/09/26 12:11:04;;;;;;;9.93;6.82;;;22.20;84.40;;;;;;5029396;28;20455;-56
2023/09/26 12:13:29;;;;;;;7.25;6.32;;;22.30;84.60;;;;;;5032019;28;20031;-57
2023/09/26 12:15:57;;;;;;;9.45;6.55;;;22.30;84.20;;;;;;5028549;28;20083;-58
2023/09/26 12:18:22;;;;;;;7.55;6.18;;;22.20;84.10;;;;;;5021905;28;20033;-57
2023/09/26 12:20:53;;;;;;;6.95;5.70;;;22.20;84.10;;;;;;5029381;28;20114;-58
2023/09/26 12:23:21;;;;;;;8.30;5.97;;;22.30;83.70;;;;;;5027390;28;20400;-58
2023/09/26 12:25:47;;;;;;;7.22;6.53;;;22.50;83.20;;;;;;5026173;28;20408;-54
2023/09/26 12:28:13;;;;;;;7.97;5.18;;;22.60;82.90;;;;;;5027652;28;20131;-55
2023/09/26 12:30:38;;;;;;;9.57;5.53;;;22.70;82.30;;;;;;5031855;28;20104;-54
2023/09/26 12:33:04;;;;;;;6.82;5.45;;;22.70;81.70;;;;;;5028479;28;20033;-54
2023/09/26 12:35:29;;;;;;;9.23;6.43;;;22.80;80.70;;;;;;5027055;28;20112;-53